createdAt,value
2017-09-30T00:00:56.050Z,0
2017-09-30T00:01:56.354Z,0
2017-09-30T00:02:56.364Z,0
2017-09-30T00:03:56.368Z,0
2017-09-30T00:04:55.735Z,0
2017-09-30T00:05:55.735Z,0
2017-09-30T00:06:55.734Z,0
2017-09-30T00:07:56.365Z,0
2017-09-30T00:08:56.050Z,0
2017-09-30T00:09:56.041Z,0
2017-09-30T00:10:56.368Z,0
2017-09-30T00:11:56.365Z,0
2017-09-30T00:12:55.737Z,0
2017-09-30T00:13:56.368Z,0
2017-09-30T00:14:56.081Z,0
2017-09-30T00:15:55.729Z,0
2017-09-30T00:16:56.064Z,0
2017-09-30T00:17:56.046Z,0
2017-09-30T00:18:55.734Z,0
2017-09-30T00:19:56.358Z,0
2017-09-30T00:20:56.058Z,0
2017-09-30T00:21:56.047Z,0
2017-09-30T00:22:56.052Z,0
2017-09-30T00:23:56.037Z,0
2017-09-30T00:24:56.355Z,0
2017-09-30T00:25:55.433Z,0
2017-09-30T00:26:56.045Z,0
2017-09-30T00:27:56.364Z,0
2017-09-30T00:28:55.744Z,0
2017-09-30T00:29:56.364Z,0
2017-09-30T00:30:56.350Z,0
2017-09-30T00:31:56.051Z,0
2017-09-30T00:32:56.366Z,0
2017-09-30T00:33:56.057Z,0
2017-09-30T00:34:55.443Z,0
2017-09-30T00:35:55.761Z,0
2017-09-30T00:36:56.355Z,0
2017-09-30T00:37:56.047Z,0
2017-09-30T00:38:56.049Z,0
2017-09-30T00:39:56.055Z,0
2017-09-30T00:40:56.054Z,0
2017-09-30T00:41:56.405Z,0
2017-09-30T00:42:56.376Z,0
2017-09-30T00:43:56.051Z,0
2017-09-30T00:44:56.356Z,0
2017-09-30T00:45:56.356Z,0
2017-09-30T00:46:56.061Z,0
2017-09-30T00:47:56.364Z,0
2017-09-30T00:48:56.050Z,0
2017-09-30T00:49:55.745Z,0
2017-09-30T00:50:56.360Z,0
2017-09-30T00:51:56.362Z,0
2017-09-30T00:52:56.052Z,0
2017-09-30T00:53:55.437Z,0
2017-09-30T00:54:56.059Z,0
2017-09-30T00:55:55.744Z,0
2017-09-30T00:56:56.360Z,0
2017-09-30T00:57:55.747Z,0
2017-09-30T00:58:56.056Z,0
2017-09-30T00:59:56.047Z,0
2017-09-30T01:00:56.053Z,0
2017-09-30T01:01:56.071Z,0
2017-09-30T01:02:56.073Z,0
2017-09-30T01:03:56.363Z,0
2017-09-30T01:04:56.060Z,0
2017-09-30T01:05:56.060Z,0
2017-09-30T01:06:56.367Z,0
2017-09-30T01:07:56.372Z,0
2017-09-30T01:08:56.370Z,0
2017-09-30T01:09:55.758Z,0
2017-09-30T01:10:56.073Z,0
2017-09-30T01:11:56.051Z,0
2017-09-30T01:12:56.094Z,0
2017-09-30T01:13:56.063Z,0
2017-09-30T01:14:55.438Z,0
2017-09-30T01:15:56.365Z,0
2017-09-30T01:16:56.078Z,0
2017-09-30T01:17:55.489Z,0
2017-09-30T01:18:56.192Z,0
2017-09-30T01:19:56.548Z,0
2017-09-30T01:20:55.754Z,0
2017-09-30T01:21:56.389Z,0
2017-09-30T01:22:56.064Z,0
2017-09-30T01:23:56.227Z,0
2017-09-30T01:24:56.058Z,0
2017-09-30T01:25:55.755Z,0
2017-09-30T01:26:56.381Z,0
2017-09-30T01:27:56.062Z,0
2017-09-30T01:28:56.062Z,0
2017-09-30T01:29:56.071Z,0
2017-09-30T01:30:56.370Z,0
2017-09-30T01:31:56.060Z,0
2017-09-30T01:32:56.060Z,0
2017-09-30T01:33:55.756Z,0
2017-09-30T01:34:56.373Z,0
2017-09-30T01:35:55.759Z,0
2017-09-30T01:36:56.375Z,0
2017-09-30T01:37:56.373Z,0
2017-09-30T01:38:56.059Z,0
2017-09-30T01:39:56.061Z,0
2017-09-30T01:40:56.055Z,0
2017-09-30T01:41:55.760Z,0
2017-09-30T01:42:55.758Z,0
2017-09-30T01:43:56.060Z,0
2017-09-30T01:44:56.367Z,0
2017-09-30T01:45:56.581Z,0
2017-09-30T01:46:56.071Z,0
2017-09-30T01:47:56.055Z,0
2017-09-30T01:48:56.370Z,0
2017-09-30T01:49:56.065Z,0
2017-09-30T01:50:56.061Z,0
2017-09-30T01:51:55.755Z,0
2017-09-30T01:52:56.062Z,0
2017-09-30T01:53:56.062Z,0
2017-09-30T01:54:56.063Z,0
2017-09-30T01:55:55.754Z,0
2017-09-30T01:56:55.757Z,0
2017-09-30T01:57:56.371Z,0
2017-09-30T01:58:56.368Z,0
2017-09-30T01:59:55.755Z,0
2017-09-30T02:00:56.119Z,0
2017-09-30T02:01:56.164Z,0
2017-09-30T02:02:55.771Z,0
2017-09-30T02:03:56.076Z,0
2017-09-30T02:04:55.753Z,0
2017-09-30T02:05:56.062Z,0
2017-09-30T02:06:55.761Z,0
2017-09-30T02:07:55.753Z,0
2017-09-30T02:08:56.071Z,0
2017-09-30T02:09:56.382Z,0
2017-09-30T02:10:56.371Z,0
2017-09-30T02:11:55.775Z,0
2017-09-30T02:12:56.371Z,0
2017-09-30T02:13:55.753Z,0
2017-09-30T02:14:56.377Z,0
2017-09-30T02:15:58.284Z,0
2017-09-30T02:16:56.373Z,0
2017-09-30T02:17:55.758Z,0
2017-09-30T02:18:55.454Z,0
2017-09-30T02:19:56.063Z,0
2017-09-30T02:20:56.069Z,0
2017-09-30T02:21:55.759Z,0
2017-09-30T02:22:56.375Z,0
2017-09-30T02:23:56.074Z,0
2017-09-30T02:24:56.382Z,0
2017-09-30T02:25:55.457Z,0
2017-09-30T02:26:56.369Z,0
2017-09-30T02:27:56.373Z,0
2017-09-30T02:28:56.386Z,0
2017-09-30T02:29:56.375Z,0
2017-09-30T02:30:56.369Z,0
2017-09-30T02:31:56.365Z,0
2017-09-30T02:32:56.058Z,0
2017-09-30T02:33:56.415Z,0
2017-09-30T02:34:56.062Z,0
2017-09-30T02:35:56.061Z,0
2017-09-30T02:36:56.064Z,0
2017-09-30T02:37:56.064Z,0
2017-09-30T02:38:56.061Z,0
2017-09-30T02:39:56.374Z,0
2017-09-30T02:40:56.078Z,0
2017-09-30T02:41:55.445Z,0
2017-09-30T02:42:55.749Z,0
2017-09-30T02:43:56.061Z,0
2017-09-30T02:44:56.063Z,0
2017-09-30T02:45:58.712Z,0
2017-09-30T02:46:56.370Z,0
2017-09-30T02:47:55.752Z,0
2017-09-30T02:48:56.372Z,0
2017-09-30T02:49:56.057Z,0
2017-09-30T02:50:56.057Z,0
2017-09-30T02:51:56.361Z,0
2017-09-30T02:52:56.056Z,0
2017-09-30T02:53:56.062Z,0
2017-09-30T02:54:56.368Z,0
2017-09-30T02:55:56.370Z,0
2017-09-30T02:56:56.374Z,0
2017-09-30T02:57:56.392Z,0
2017-09-30T02:58:56.371Z,0
2017-09-30T02:59:56.362Z,0
2017-09-30T03:00:56.369Z,0
2017-09-30T03:01:56.063Z,0
2017-09-30T03:02:56.362Z,0
2017-09-30T03:03:55.762Z,0
2017-09-30T03:04:56.052Z,0
2017-09-30T03:05:56.362Z,0
2017-09-30T03:06:55.750Z,0
2017-09-30T03:07:56.053Z,0
2017-09-30T03:08:56.059Z,0
2017-09-30T03:09:56.357Z,0
2017-09-30T03:10:56.078Z,0
2017-09-30T03:11:56.062Z,0
2017-09-30T03:12:56.375Z,0
2017-09-30T03:13:55.751Z,0
2017-09-30T03:14:56.377Z,0
2017-09-30T03:15:56.859Z,0
2017-09-30T03:16:56.362Z,0
2017-09-30T03:17:56.367Z,0
2017-09-30T03:18:56.361Z,0
2017-09-30T03:19:56.055Z,0
2017-09-30T03:20:56.366Z,0
2017-09-30T03:21:56.056Z,0
2017-09-30T03:22:55.752Z,0
2017-09-30T03:23:56.387Z,0
2017-09-30T03:24:55.752Z,0
2017-09-30T03:25:56.070Z,0
2017-09-30T03:26:55.755Z,0
2017-09-30T03:27:56.063Z,0
2017-09-30T03:28:55.756Z,0
2017-09-30T03:29:55.756Z,0
2017-09-30T03:30:56.059Z,0
2017-09-30T03:31:56.366Z,0
2017-09-30T03:32:56.058Z,0
2017-09-30T03:33:55.755Z,0
2017-09-30T03:34:56.064Z,0
2017-09-30T03:35:56.064Z,0
2017-09-30T03:36:56.062Z,0
2017-09-30T03:37:56.063Z,0
2017-09-30T03:38:56.061Z,0
2017-09-30T03:39:56.371Z,0
2017-09-30T03:40:56.063Z,0
2017-09-30T03:41:56.371Z,0
2017-09-30T03:42:56.057Z,0
2017-09-30T03:43:56.373Z,0
2017-09-30T03:44:56.369Z,0
2017-09-30T03:45:56.376Z,0
2017-09-30T03:46:58.481Z,0
2017-09-30T03:47:56.068Z,0
2017-09-30T03:48:56.393Z,0
2017-09-30T03:49:56.072Z,0
2017-09-30T03:50:56.381Z,0
2017-09-30T03:51:56.069Z,0
2017-09-30T03:52:56.092Z,0
2017-09-30T03:53:56.377Z,0
2017-09-30T03:54:56.370Z,0
2017-09-30T03:55:56.063Z,0
2017-09-30T03:56:56.373Z,0
2017-09-30T03:57:56.065Z,0
2017-09-30T03:58:56.063Z,0
2017-09-30T03:59:55.757Z,0
2017-09-30T04:00:56.371Z,0
2017-09-30T04:01:55.754Z,0
2017-09-30T04:02:56.064Z,0
2017-09-30T04:03:56.067Z,0
2017-09-30T04:04:56.382Z,0
2017-09-30T04:05:56.057Z,0
2017-09-30T04:06:57.033Z,0
2017-09-30T04:07:56.508Z,0
2017-09-30T04:08:55.775Z,0
2017-09-30T04:09:56.068Z,0
2017-09-30T04:10:56.069Z,0
2017-09-30T04:11:56.059Z,0
2017-09-30T04:12:56.385Z,0
2017-09-30T04:13:56.377Z,0
2017-09-30T04:14:56.070Z,0
2017-09-30T04:15:56.102Z,0
2017-09-30T04:16:57.984Z,0
2017-09-30T04:17:56.380Z,0
2017-09-30T04:18:56.071Z,0
2017-09-30T04:19:56.068Z,0
2017-09-30T04:20:56.381Z,0
2017-09-30T04:21:56.067Z,0
2017-09-30T04:22:56.387Z,0
2017-09-30T04:23:55.760Z,0
2017-09-30T04:24:56.376Z,0
2017-09-30T04:25:56.377Z,0
2017-09-30T04:26:56.108Z,0
2017-09-30T04:27:55.810Z,0
2017-09-30T04:28:55.782Z,0
2017-09-30T04:29:55.763Z,0
2017-09-30T04:30:56.074Z,0
2017-09-30T04:31:55.463Z,0
2017-09-30T04:32:56.090Z,0
2017-09-30T04:33:56.117Z,0
2017-09-30T04:34:56.386Z,0
2017-09-30T04:35:56.382Z,0
2017-09-30T04:36:56.067Z,0
2017-09-30T04:37:55.756Z,0
2017-09-30T04:38:56.382Z,0
2017-09-30T04:39:56.068Z,0
2017-09-30T04:40:56.377Z,0
2017-09-30T04:41:56.076Z,0
2017-09-30T04:42:55.757Z,0
2017-09-30T04:43:55.787Z,0
2017-09-30T04:44:55.764Z,0
2017-09-30T04:45:55.754Z,0
2017-09-30T04:46:56.384Z,0
2017-09-30T04:47:56.073Z,0
2017-09-30T04:48:56.379Z,0
2017-09-30T04:49:56.376Z,0
2017-09-30T04:50:56.372Z,0
2017-09-30T04:51:56.365Z,4
2017-09-30T04:52:56.065Z,4
2017-09-30T04:53:56.376Z,0
2017-09-30T04:54:56.068Z,4
2017-09-30T04:55:56.065Z,0
2017-09-30T04:56:56.375Z,4
2017-09-30T04:57:56.056Z,4
2017-09-30T04:58:56.069Z,4
2017-09-30T04:59:56.059Z,4
2017-09-30T05:00:56.368Z,8
2017-09-30T05:01:55.763Z,8
2017-09-30T05:02:56.058Z,12
2017-09-30T05:03:56.371Z,16
2017-09-30T05:04:56.366Z,16
2017-09-30T05:05:56.374Z,16
2017-09-30T05:06:56.366Z,20
2017-09-30T05:07:55.749Z,24
2017-09-30T05:08:56.365Z,28
2017-09-30T05:09:56.062Z,36
2017-09-30T05:10:56.071Z,40
2017-09-30T05:11:56.071Z,44
2017-09-30T05:12:56.051Z,52
2017-09-30T05:13:55.750Z,60
2017-09-30T05:14:56.362Z,68
2017-09-30T05:15:56.064Z,76
2017-09-30T05:16:56.364Z,84
2017-09-30T05:17:58.529Z,92
2017-09-30T05:18:56.366Z,100
2017-09-30T05:19:56.061Z,108
2017-09-30T05:20:55.748Z,120
2017-09-30T05:21:55.758Z,136
2017-09-30T05:22:56.360Z,152
2017-09-30T05:23:56.366Z,168
2017-09-30T05:24:55.447Z,184
2017-09-30T05:25:56.369Z,192
2017-09-30T05:26:56.055Z,196
2017-09-30T05:27:56.365Z,208
2017-09-30T05:28:56.056Z,220
2017-09-30T05:29:56.362Z,224
2017-09-30T05:30:56.048Z,232
2017-09-30T05:31:56.062Z,256
2017-09-30T05:32:57.659Z,284
2017-09-30T05:33:56.365Z,312
2017-09-30T05:34:55.777Z,340
2017-09-30T05:35:55.777Z,372
2017-09-30T05:36:56.062Z,428
2017-09-30T05:37:56.058Z,488
2017-09-30T05:38:56.051Z,528
2017-09-30T05:39:55.744Z,544
2017-09-30T05:40:56.054Z,548
2017-09-30T05:41:56.367Z,548
2017-09-30T05:42:56.378Z,548
2017-09-30T05:43:56.053Z,552
2017-09-30T05:44:56.365Z,552
2017-09-30T05:45:56.363Z,552
2017-09-30T05:46:56.064Z,560
2017-09-30T05:47:57.712Z,584
2017-09-30T05:48:56.364Z,596
2017-09-30T05:49:56.051Z,608
2017-09-30T05:50:56.067Z,628
2017-09-30T05:51:56.056Z,656
2017-09-30T05:52:56.374Z,688
2017-09-30T05:53:55.757Z,724
2017-09-30T05:54:56.368Z,756
2017-09-30T05:55:56.051Z,784
2017-09-30T05:56:56.058Z,804
2017-09-30T05:57:56.057Z,828
2017-09-30T05:58:55.762Z,852
2017-09-30T05:59:55.758Z,884
2017-09-30T06:00:56.056Z,928
2017-09-30T06:01:56.369Z,976
2017-09-30T06:02:56.421Z,1024
2017-09-30T06:03:56.367Z,1084
2017-09-30T06:04:56.372Z,1136
2017-09-30T06:05:56.368Z,1188
2017-09-30T06:06:56.073Z,1236
2017-09-30T06:07:56.061Z,1268
2017-09-30T06:08:56.066Z,1312
2017-09-30T06:09:56.405Z,1344
2017-09-30T06:10:56.381Z,1368
2017-09-30T06:11:56.365Z,1388
2017-09-30T06:12:56.064Z,1408
2017-09-30T06:13:55.762Z,1416
2017-09-30T06:14:56.068Z,1436
2017-09-30T06:15:55.760Z,1456
2017-09-30T06:16:56.369Z,1512
2017-09-30T06:17:56.390Z,1572
2017-09-30T06:18:56.381Z,1584
2017-09-30T06:19:56.403Z,1616
2017-09-30T06:20:56.089Z,1644
2017-09-30T06:21:56.386Z,1668
2017-09-30T06:22:56.383Z,1704
2017-09-30T06:23:55.474Z,1756
2017-09-30T06:24:56.071Z,1816
2017-09-30T06:25:56.383Z,1864
2017-09-30T06:26:56.068Z,1920
2017-09-30T06:27:56.381Z,1968
2017-09-30T06:28:56.075Z,2016
2017-09-30T06:29:56.072Z,2072
2017-09-30T06:30:55.769Z,2120
2017-09-30T06:31:56.082Z,2164
2017-09-30T06:32:56.384Z,2204
2017-09-30T06:33:56.080Z,2244
2017-09-30T06:34:56.393Z,2288
2017-09-30T06:35:56.075Z,2332
2017-09-30T06:36:55.825Z,2388
2017-09-30T06:37:55.770Z,2448
2017-09-30T06:38:56.397Z,2508
2017-09-30T06:39:56.400Z,2568
2017-09-30T06:40:56.388Z,2632
2017-09-30T06:41:56.084Z,2688
2017-09-30T06:42:56.390Z,2752
2017-09-30T06:43:55.768Z,2800
2017-09-30T06:44:55.469Z,2848
2017-09-30T06:45:56.076Z,2892
2017-09-30T06:46:55.796Z,2936
2017-09-30T06:47:59.111Z,2980
2017-09-30T06:48:55.801Z,3036
2017-09-30T06:49:56.406Z,3088
2017-09-30T06:50:56.402Z,3144
2017-09-30T06:51:56.105Z,3192
2017-09-30T06:52:56.447Z,3224
2017-09-30T06:53:56.393Z,3248
2017-09-30T06:54:56.413Z,3260
2017-09-30T06:55:56.411Z,3268
2017-09-30T06:56:56.090Z,3260
2017-09-30T06:57:56.406Z,3256
2017-09-30T06:58:56.091Z,3260
2017-09-30T06:59:56.412Z,3272
2017-09-30T07:00:55.785Z,3300
2017-09-30T07:01:56.404Z,3332
2017-09-30T07:02:55.785Z,3380
2017-09-30T07:03:56.099Z,3464
2017-09-30T07:04:56.096Z,3480
2017-09-30T07:05:55.784Z,3528
2017-09-30T07:06:56.093Z,3588
2017-09-30T07:07:56.415Z,3628
2017-09-30T07:08:56.097Z,3664
2017-09-30T07:09:56.127Z,3696
2017-09-30T07:10:56.411Z,3716
2017-09-30T07:11:56.412Z,3720
2017-09-30T07:12:56.107Z,3724
2017-09-30T07:13:56.101Z,3720
2017-09-30T07:14:55.796Z,3724
2017-09-30T07:15:55.794Z,3740
2017-09-30T07:16:56.432Z,3752
2017-09-30T07:17:56.112Z,3788
2017-09-30T07:19:01.040Z,3888
2017-09-30T07:19:56.113Z,3908
2017-09-30T07:20:56.108Z,3964
2017-09-30T07:21:56.112Z,4036
2017-09-30T07:22:56.432Z,4128
2017-09-30T07:23:56.119Z,4240
2017-09-30T07:24:56.162Z,4368
2017-09-30T07:25:56.197Z,4512
2017-09-30T07:26:56.436Z,4736
2017-09-30T07:27:55.813Z,4760
2017-09-30T07:28:56.125Z,4828
2017-09-30T07:29:56.504Z,4900
2017-09-30T07:30:56.510Z,5268
2017-09-30T07:31:56.133Z,5228
2017-09-30T07:32:56.126Z,5004
2017-09-30T07:33:55.886Z,5040
2017-09-30T07:34:56.166Z,5160
2017-09-30T07:35:55.519Z,5416
2017-09-30T07:36:56.144Z,6416
2017-09-30T07:37:56.142Z,7616
2017-09-30T07:38:55.844Z,9368
2017-09-30T07:39:55.535Z,9488
2017-09-30T07:40:56.142Z,7152
2017-09-30T07:41:55.836Z,7380
2017-09-30T07:42:55.839Z,8632
2017-09-30T07:43:56.457Z,7756
2017-09-30T07:44:56.157Z,7632
2017-09-30T07:45:56.217Z,7372
2017-09-30T07:46:55.852Z,6944
2017-09-30T07:47:56.173Z,6920
2017-09-30T07:48:55.796Z,6928
2017-09-30T07:49:56.180Z,7184
2017-09-30T07:50:55.865Z,7312
2017-09-30T07:51:55.869Z,7068
2017-09-30T07:52:55.882Z,7080
2017-09-30T07:53:56.183Z,7176
2017-09-30T07:54:55.884Z,6748
2017-09-30T07:55:56.188Z,6212
2017-09-30T07:56:56.509Z,5960
2017-09-30T07:57:55.889Z,5892
2017-09-30T07:58:55.896Z,5904
2017-09-30T07:59:55.901Z,5968
2017-09-30T08:00:56.519Z,6036
2017-09-30T08:01:56.214Z,5944
2017-09-30T08:02:56.223Z,5896
2017-09-30T08:03:56.217Z,5904
2017-09-30T08:04:56.219Z,5984
2017-09-30T08:05:55.936Z,6272
2017-09-30T08:06:55.920Z,6652
2017-09-30T08:07:55.612Z,6592
2017-09-30T08:08:55.621Z,6156
2017-09-30T08:09:56.548Z,6056
2017-09-30T08:10:56.568Z,6068
2017-09-30T08:11:55.940Z,6156
2017-09-30T08:12:56.247Z,6152
2017-09-30T08:13:55.960Z,5988
2017-09-30T08:14:56.263Z,5900
2017-09-30T08:15:56.257Z,5832
2017-09-30T08:16:56.281Z,5816
2017-09-30T08:17:56.574Z,5808
2017-09-30T08:18:56.277Z,5792
2017-09-30T08:19:56.021Z,5764
2017-09-30T08:20:55.660Z,5812
2017-09-30T08:21:55.671Z,5788
2017-09-30T08:22:56.284Z,5788
2017-09-30T08:23:56.306Z,5880
2017-09-30T08:24:55.977Z,6204
2017-09-30T08:25:56.595Z,5992
2017-09-30T08:26:55.999Z,6188
2017-09-30T08:27:55.988Z,6260
2017-09-30T08:28:56.614Z,6244
2017-09-30T08:29:56.316Z,6316
2017-09-30T08:30:56.615Z,6800
2017-09-30T08:31:56.007Z,6428
2017-09-30T08:32:56.308Z,5956
2017-09-30T08:33:56.321Z,5684
2017-09-30T08:34:56.016Z,5544
2017-09-30T08:35:56.036Z,6000
2017-09-30T08:36:55.715Z,5532
2017-09-30T08:37:56.657Z,5128
2017-09-30T08:38:56.371Z,5040
2017-09-30T08:39:56.641Z,5036
2017-09-30T08:40:56.030Z,5308
2017-09-30T08:41:56.058Z,4960
2017-09-30T08:42:56.354Z,4900
2017-09-30T08:43:56.357Z,4940
2017-09-30T08:44:55.737Z,4872
2017-09-30T08:45:55.793Z,4880
2017-09-30T08:46:56.671Z,4964
2017-09-30T08:47:56.049Z,5692
2017-09-30T08:48:56.680Z,7072
2017-09-30T08:49:56.376Z,6332
2017-09-30T08:50:55.750Z,8812
2017-09-30T08:51:56.069Z,9224
2017-09-30T08:52:56.384Z,9176
2017-09-30T08:53:56.377Z,8856
2017-09-30T08:54:56.077Z,9048
2017-09-30T08:55:56.399Z,8992
2017-09-30T08:56:56.700Z,8948
2017-09-30T08:57:56.704Z,8896
2017-09-30T08:58:56.094Z,7992
2017-09-30T08:59:56.402Z,8908
2017-09-30T09:00:56.401Z,8740
2017-09-30T09:01:56.102Z,8700
2017-09-30T09:02:56.418Z,8384
2017-09-30T09:03:56.431Z,8520
2017-09-30T09:04:56.164Z,8424
2017-09-30T09:05:56.107Z,8500
2017-09-30T09:06:56.422Z,8628
2017-09-30T09:07:56.121Z,8592
2017-09-30T09:08:56.122Z,8496
2017-09-30T09:09:56.437Z,8552
2017-09-30T09:10:56.132Z,8684
2017-09-30T09:11:56.437Z,8840
2017-09-30T09:12:56.756Z,8996
2017-09-30T09:13:56.768Z,8596
2017-09-30T09:14:56.139Z,9076
2017-09-30T09:15:56.457Z,9320
2017-09-30T09:16:56.451Z,9364
2017-09-30T09:17:56.791Z,8912
2017-09-30T09:18:56.500Z,9316
2017-09-30T09:19:58.156Z,9484
2017-09-30T09:20:55.864Z,9640
2017-09-30T09:21:56.488Z,9936
2017-09-30T09:22:55.864Z,10128
2017-09-30T09:23:56.174Z,10280
2017-09-30T09:24:56.802Z,10368
2017-09-30T09:25:56.179Z,10184
2017-09-30T09:26:56.186Z,10568
2017-09-30T09:27:56.189Z,8440
2017-09-30T09:28:56.510Z,8416
2017-09-30T09:29:56.508Z,8040
2017-09-30T09:30:56.201Z,7872
2017-09-30T09:31:56.224Z,7924
2017-09-30T09:32:56.833Z,7780
2017-09-30T09:33:56.563Z,7976
2017-09-30T09:34:56.893Z,8552
2017-09-30T09:35:56.535Z,8504
2017-09-30T09:36:56.233Z,8516
2017-09-30T09:37:56.550Z,9896
2017-09-30T09:38:56.887Z,7832
2017-09-30T09:39:56.258Z,7540
2017-09-30T09:40:56.570Z,7436
2017-09-30T09:41:56.911Z,7324
2017-09-30T09:42:56.557Z,7352
2017-09-30T09:43:56.260Z,7308
2017-09-30T09:44:56.888Z,7288
2017-09-30T09:45:56.262Z,7308
2017-09-30T09:46:56.907Z,7328
2017-09-30T09:47:56.922Z,7300
2017-09-30T09:48:56.303Z,7224
2017-09-30T09:50:00.085Z,7084
2017-09-30T09:50:56.907Z,6924
2017-09-30T09:51:56.921Z,6752
2017-09-30T09:52:56.680Z,6576
2017-09-30T09:53:56.050Z,6400
2017-09-30T09:54:56.956Z,6232
2017-09-30T09:55:56.633Z,6084
2017-09-30T09:56:56.632Z,5992
2017-09-30T09:57:56.628Z,5820
2017-09-30T09:58:56.632Z,5716
2017-09-30T09:59:56.324Z,5648
2017-09-30T10:00:56.655Z,5600
2017-09-30T10:01:56.334Z,5604
2017-09-30T10:02:56.660Z,6260
2017-09-30T10:03:56.033Z,5928
2017-09-30T10:04:56.663Z,7116
2017-09-30T10:05:56.659Z,7016
2017-09-30T10:06:56.706Z,8220
2017-09-30T10:07:56.690Z,7208
2017-09-30T10:08:56.695Z,7728
2017-09-30T10:09:56.062Z,7416
2017-09-30T10:10:56.995Z,7328
2017-09-30T10:11:56.403Z,7844
2017-09-30T10:12:56.726Z,7756
2017-09-30T10:13:56.726Z,7664
2017-09-30T10:14:57.018Z,7568
2017-09-30T10:15:56.700Z,7492
2017-09-30T10:16:57.032Z,7428
2017-09-30T10:17:56.707Z,7372
2017-09-30T10:18:57.023Z,7332
2017-09-30T10:19:57.036Z,7240
2017-09-30T10:20:56.730Z,7184
2017-09-30T10:21:56.114Z,7140
2017-09-30T10:22:56.418Z,7124
2017-09-30T10:23:57.042Z,7080
2017-09-30T10:24:56.423Z,7044
2017-09-30T10:25:57.104Z,7004
2017-09-30T10:26:56.461Z,6984
2017-09-30T10:27:56.767Z,6968
2017-09-30T10:28:57.069Z,6940
2017-09-30T10:29:56.757Z,6920
2017-09-30T10:30:56.460Z,6704
2017-09-30T10:31:57.114Z,6792
2017-09-30T10:32:56.781Z,6784
2017-09-30T10:33:57.095Z,6764
2017-09-30T10:34:56.803Z,6636
2017-09-30T10:35:57.266Z,6080
2017-09-30T10:36:57.124Z,6836
2017-09-30T10:37:56.788Z,6832
2017-09-30T10:38:56.793Z,6832
2017-09-30T10:39:56.504Z,6872
2017-09-30T10:40:56.804Z,6932
2017-09-30T10:41:57.130Z,7044
2017-09-30T10:42:56.820Z,7008
2017-09-30T10:43:56.823Z,7088
2017-09-30T10:44:56.823Z,7076
2017-09-30T10:45:56.520Z,6972
2017-09-30T10:46:57.148Z,6944
2017-09-30T10:47:57.160Z,5984
2017-09-30T10:48:56.530Z,6444
2017-09-30T10:49:56.549Z,6764
2017-09-30T10:50:56.838Z,6880
2017-09-30T10:51:56.862Z,6940
2017-09-30T10:52:57.174Z,7044
2017-09-30T10:53:56.555Z,6540
2017-09-30T10:54:56.873Z,6644
2017-09-30T10:55:57.195Z,7056
2017-09-30T10:56:56.260Z,7084
2017-09-30T10:57:56.267Z,7244
2017-09-30T10:58:57.198Z,7392
2017-09-30T10:59:57.200Z,7432
2017-09-30T11:00:56.940Z,7312
2017-09-30T11:01:56.908Z,7172
2017-09-30T11:02:56.921Z,6980
2017-09-30T11:03:56.924Z,6808
2017-09-30T11:04:56.930Z,6688
2017-09-30T11:05:56.611Z,6556
2017-09-30T11:06:56.934Z,6444
2017-09-30T11:07:57.245Z,6340
2017-09-30T11:08:56.931Z,6232
2017-09-30T11:09:56.670Z,6172
2017-09-30T11:10:56.942Z,6092
2017-09-30T11:11:56.645Z,6040
2017-09-30T11:12:56.984Z,6028
2017-09-30T11:13:57.290Z,6052
2017-09-30T11:14:56.656Z,6128
2017-09-30T11:15:57.295Z,6228
2017-09-30T11:16:56.988Z,6356
2017-09-30T11:17:56.682Z,6472
2017-09-30T11:18:56.693Z,5944
2017-09-30T11:19:56.696Z,6852
2017-09-30T11:20:58.541Z,5776
2017-09-30T11:21:57.034Z,5408
2017-09-30T11:22:57.002Z,5500
2017-09-30T11:23:57.040Z,5996
2017-09-30T11:24:57.011Z,6120
2017-09-30T11:25:57.041Z,5792
2017-09-30T11:26:57.069Z,6092
2017-09-30T11:27:57.349Z,7724
2017-09-30T11:28:57.050Z,8156
2017-09-30T11:29:57.050Z,8280
2017-09-30T11:30:56.742Z,7940
2017-09-30T11:31:57.056Z,8304
2017-09-30T11:32:56.797Z,8112
2017-09-30T11:33:57.072Z,7272
2017-09-30T11:34:57.149Z,7136
2017-09-30T11:35:56.769Z,7456
2017-09-30T11:36:57.105Z,6408
2017-09-30T11:37:57.102Z,6188
2017-09-30T11:38:57.401Z,6040
2017-09-30T11:39:56.786Z,5896
2017-09-30T11:40:57.408Z,5828
2017-09-30T11:41:57.108Z,5892
2017-09-30T11:42:57.106Z,5940
2017-09-30T11:43:57.111Z,6088
2017-09-30T11:44:57.462Z,7268
2017-09-30T11:45:57.448Z,6824
2017-09-30T11:46:57.443Z,7424
2017-09-30T11:47:57.133Z,7372
2017-09-30T11:48:57.151Z,7300
2017-09-30T11:49:56.836Z,7304
2017-09-30T11:50:58.438Z,7192
2017-09-30T11:51:57.149Z,6908
2017-09-30T11:52:57.471Z,7456
2017-09-30T11:53:56.563Z,7540
2017-09-30T11:54:57.527Z,6632
2017-09-30T11:55:56.875Z,6152
2017-09-30T11:56:57.185Z,5564
2017-09-30T11:57:57.181Z,5408
2017-09-30T11:58:57.507Z,5384
2017-09-30T11:59:57.512Z,5164
2017-09-30T12:00:56.902Z,5196
2017-09-30T12:01:56.898Z,5952
2017-09-30T12:02:57.545Z,5652
2017-09-30T12:03:56.909Z,6576
2017-09-30T12:04:57.223Z,6776
2017-09-30T12:05:57.233Z,6908
2017-09-30T12:06:57.242Z,6848
2017-09-30T12:07:56.964Z,6732
2017-09-30T12:08:56.940Z,6672
2017-09-30T12:09:57.249Z,6608
2017-09-30T12:10:56.952Z,6584
2017-09-30T12:11:57.573Z,6540
2017-09-30T12:12:57.585Z,6488
2017-09-30T12:13:57.581Z,6436
2017-09-30T12:14:56.971Z,6420
2017-09-30T12:15:57.285Z,6436
2017-09-30T12:16:57.595Z,6428
2017-09-30T12:17:57.289Z,6120
2017-09-30T12:18:57.297Z,5412
2017-09-30T12:19:57.654Z,5840
2017-09-30T12:20:56.721Z,5728
2017-09-30T12:22:00.760Z,5616
2017-09-30T12:22:57.643Z,5408
2017-09-30T12:23:57.651Z,5256
2017-09-30T12:24:57.353Z,5188
2017-09-30T12:25:57.649Z,5208
2017-09-30T12:26:57.341Z,5308
2017-09-30T12:27:57.062Z,5676
2017-09-30T12:28:57.351Z,5768
2017-09-30T12:29:57.686Z,5700
2017-09-30T12:30:57.052Z,5748
2017-09-30T12:31:57.698Z,5756
2017-09-30T12:32:57.110Z,5848
2017-09-30T12:33:57.392Z,5876
2017-09-30T12:34:57.392Z,5688
2017-09-30T12:35:57.703Z,5824
2017-09-30T12:36:57.465Z,5824
2017-09-30T12:37:57.096Z,5124
2017-09-30T12:38:57.712Z,5172
2017-09-30T12:39:57.435Z,5268
2017-09-30T12:40:57.124Z,4620
2017-09-30T12:41:57.112Z,4844
2017-09-30T12:42:57.434Z,5064
2017-09-30T12:57:21.926Z,7616
2017-09-30T12:58:07.316Z,6672
2017-09-30T12:59:07.312Z,6396
2017-09-30T13:00:07.331Z,6156
2017-09-30T13:01:06.988Z,6144
2017-09-30T13:02:07.330Z,5700
2017-09-30T13:03:06.385Z,5612
2017-09-30T13:04:06.996Z,5876
2017-09-30T13:05:07.002Z,5388
2017-09-30T13:06:06.712Z,5456
2017-09-30T13:07:06.708Z,5708
2017-09-30T13:08:06.417Z,5612
2017-09-30T13:09:06.399Z,5108
2017-09-30T13:10:07.076Z,5064
2017-09-30T13:11:07.359Z,4592
2017-09-30T13:12:07.036Z,4648
2017-09-30T13:13:07.590Z,4396
2017-09-30T13:14:07.378Z,4268
2017-09-30T13:15:06.763Z,4168
2017-09-30T13:16:07.128Z,4136
2017-09-30T13:17:06.757Z,4176
2017-09-30T13:18:07.373Z,4180
2017-09-30T13:19:06.451Z,4120
2017-09-30T13:20:07.385Z,3976
2017-09-30T13:21:07.383Z,3908
2017-09-30T13:22:06.795Z,3848
2017-09-30T13:23:07.401Z,3792
2017-09-30T13:24:06.801Z,3748
2017-09-30T13:25:06.789Z,3692
2017-09-30T13:26:07.124Z,3624
2017-09-30T13:27:07.131Z,3564
2017-09-30T13:28:07.628Z,3504
2017-09-30T13:29:07.156Z,3472
2017-09-30T13:30:07.135Z,3448
2017-09-30T13:31:06.508Z,3428
2017-09-30T13:32:06.515Z,3420
2017-09-30T13:33:06.538Z,3428
2017-09-30T13:34:06.831Z,3432
2017-09-30T13:35:06.851Z,3440
2017-09-30T13:36:07.463Z,3436
2017-09-30T13:37:07.457Z,3436
2017-09-30T13:38:07.163Z,3440
2017-09-30T13:39:07.472Z,3444
2017-09-30T13:40:07.175Z,3448
2017-09-30T13:41:06.863Z,3456
2017-09-30T13:42:06.857Z,3472
2017-09-30T13:43:07.499Z,3504
2017-09-30T13:44:07.199Z,3540
2017-09-30T13:45:07.193Z,3616
2017-09-30T13:46:07.229Z,3736
2017-09-30T13:47:07.197Z,3836
2017-09-30T13:48:07.500Z,3816
2017-09-30T13:49:06.893Z,4072
2017-09-30T13:50:06.894Z,4108
2017-09-30T13:51:06.910Z,4492
2017-09-30T13:52:07.227Z,4328
2017-09-30T13:53:07.223Z,4156
2017-09-30T13:54:06.914Z,4080
2017-09-30T13:55:07.592Z,4176
2017-09-30T13:56:06.915Z,4112
2017-09-30T13:57:07.540Z,4084
2017-09-30T13:58:07.835Z,4108
2017-09-30T13:59:07.136Z,4156
2017-09-30T14:00:07.562Z,4248
2017-09-30T14:01:07.557Z,4284
2017-09-30T14:02:06.939Z,4304
2017-09-30T14:03:06.951Z,4320
2017-09-30T14:04:07.269Z,4336
2017-09-30T14:05:07.277Z,4360